SWA332 KDFW-KMCO
Flight info
| Callsign | SWA332 |
|---|---|
| Flight time | N/A |
| Altitude | 39000 |
| Route | FORCK3 FORCK HAWES WINAP ORRKK ARNNY DEEDA GRNCH5 |
| Aircraft | B738/M-SDE2E3FGHIRWXY/LB1 |
Departure
| Time | 2026-05-06 23:51 |
|---|---|
| Airport | Dallas Fort Worth International Airport (KDFW) |
Arrival
| Time | N/A |
|---|---|
| Airport | Orlando International Airport (KMCO) |
| Time | Latitude | Longitude | Altitude | Speed | Heading |
|---|---|---|---|---|---|
| 2026-05-06 23:10 | 32.89894 | -97.03535 | 586 ft | 0 kts | 227° |
| 2026-05-06 23:35 | 32.89903 | -97.03524 | 586 ft | 4 kts | 227° |
| 2026-05-06 23:35 | 32.89918 | -97.03505 | 586 ft | 3 kts | 227° |
| 2026-05-06 23:36 | 32.89936 | -97.03487 | 586 ft | 4 kts | 186° |
| 2026-05-06 23:36 | 32.89956 | -97.03495 | 586 ft | 4 kts | 142° |
| 2026-05-06 23:36 | 32.89971 | -97.03509 | 586 ft | 0 kts | 142° |
| 2026-05-06 23:40 | 32.89970 | -97.03508 | 586 ft | 1 kts | 142° |
| 2026-05-06 23:40 | 32.89950 | -97.03489 | 586 ft | 6 kts | 141° |
| 2026-05-06 23:40 | 32.89913 | -97.03454 | 586 ft | 9 kts | 141° |
| 2026-05-06 23:41 | 32.89898 | -97.03385 | 586 ft | 9 kts | 92° |
| 2026-05-06 23:41 | 32.89880 | -97.03326 | 585 ft | 7 kts | 152° |
| 2026-05-06 23:41 | 32.89813 | -97.03315 | 585 ft | 13 kts | 177° |
| 2026-05-06 23:41 | 32.89723 | -97.03317 | 585 ft | 13 kts | 179° |
| 2026-05-06 23:42 | 32.89631 | -97.03316 | 585 ft | 13 kts | 179° |
| 2026-05-06 23:42 | 32.89544 | -97.03316 | 585 ft | 12 kts | 180° |
| 2026-05-06 23:42 | 32.89459 | -97.03317 | 584 ft | 12 kts | 180° |
| 2026-05-06 23:42 | 32.89376 | -97.03318 | 584 ft | 12 kts | 180° |
| 2026-05-06 23:43 | 32.89294 | -97.03319 | 583 ft | 12 kts | 180° |
| 2026-05-06 23:43 | 32.89201 | -97.03320 | 582 ft | 15 kts | 180° |
| 2026-05-06 23:43 | 32.89091 | -97.03321 | 582 ft | 16 kts | 180° |
| 2026-05-06 23:43 | 32.88984 | -97.03321 | 581 ft | 15 kts | 180° |
| 2026-05-06 23:44 | 32.88882 | -97.03321 | 582 ft | 14 kts | 180° |
| 2026-05-06 23:44 | 32.88786 | -97.03322 | 582 ft | 14 kts | 181° |
| 2026-05-06 23:44 | 32.88680 | -97.03323 | 582 ft | 16 kts | 180° |
| 2026-05-06 23:44 | 32.88606 | -97.03380 | 582 ft | 13 kts | 263° |
| 2026-05-06 23:45 | 32.88602 | -97.03483 | 583 ft | 12 kts | 269° |
| 2026-05-06 23:45 | 32.88602 | -97.03584 | 583 ft | 12 kts | 271° |
| 2026-05-06 23:45 | 32.88604 | -97.03683 | 585 ft | 12 kts | 271° |
| 2026-05-06 23:45 | 32.88604 | -97.03778 | 590 ft | 11 kts | 270° |
| 2026-05-06 23:46 | 32.88604 | -97.03871 | 599 ft | 11 kts | 270° |
| 2026-05-06 23:46 | 32.88605 | -97.03964 | 600 ft | 11 kts | 270° |
| 2026-05-06 23:46 | 32.88606 | -97.04056 | 600 ft | 11 kts | 271° |
| 2026-05-06 23:46 | 32.88607 | -97.04145 | 600 ft | 11 kts | 271° |
| 2026-05-06 23:47 | 32.88607 | -97.04231 | 600 ft | 10 kts | 269° |
| 2026-05-06 23:47 | 32.88606 | -97.04319 | 597 ft | 12 kts | 270° |
| 2026-05-06 23:47 | 32.88606 | -97.04461 | 591 ft | 21 kts | 270° |
| 2026-05-06 23:47 | 32.88607 | -97.04633 | 588 ft | 21 kts | 270° |
| 2026-05-06 23:48 | 32.88608 | -97.04802 | 587 ft | 20 kts | 271° |
| 2026-05-06 23:48 | 32.88532 | -97.04892 | 588 ft | 17 kts | 184° |
| 2026-05-06 23:48 | 32.88421 | -97.04891 | 588 ft | 15 kts | 180° |
| 2026-05-06 23:48 | 32.88317 | -97.04895 | 588 ft | 15 kts | 182° |
| 2026-05-06 23:49 | 32.88218 | -97.04897 | 589 ft | 14 kts | 180° |
| 2026-05-06 23:49 | 32.88124 | -97.04896 | 589 ft | 13 kts | 179° |
| 2026-05-06 23:49 | 32.88034 | -97.04895 | 587 ft | 13 kts | 179° |
| 2026-05-06 23:49 | 32.87941 | -97.04897 | 585 ft | 13 kts | 191° |
| 2026-05-06 23:50 | 32.87906 | -97.04981 | 584 ft | 13 kts | 275° |
| 2026-05-06 23:50 | 32.87982 | -97.05091 | 588 ft | 0 kts | 358° |
| 2026-05-06 23:50 | 32.87983 | -97.05091 | 588 ft | 1 kts | 358° |
| 2026-05-06 23:51 | 32.88050 | -97.05093 | 589 ft | 33 kts | 359° |
| 2026-05-06 23:51 | 32.88536 | -97.05086 | 588 ft | 106 kts | 1° |
| 2026-05-06 23:51 | 32.89482 | -97.05076 | 641 ft | 160 kts | 2° |
| 2026-05-06 23:51 | 32.90648 | -97.05032 | 1246 ft | 173 kts | 2° |
| 2026-05-06 23:52 | 32.91842 | -97.05027 | 2193 ft | 170 kts | 0° |
| 2026-05-06 23:52 | 32.93062 | -97.05063 | 2879 ft | 181 kts | 3° |
| 2026-05-06 23:52 | 32.94263 | -97.04674 | 3630 ft | 184 kts | 31° |
| 2026-05-06 23:52 | 32.95307 | -97.03764 | 4397 ft | 186 kts | 38° |
| 2026-05-06 23:53 | 32.96257 | -97.02779 | 5345 ft | 177 kts | 43° |
| 2026-05-06 23:53 | 32.97122 | -97.01707 | 6009 ft | 185 kts | 47° |
| 2026-05-06 23:53 | 32.97976 | -97.00468 | 6494 ft | 202 kts | 50° |
| 2026-05-06 23:53 | 32.98853 | -96.99101 | 6991 ft | 213 kts | 51° |
| 2026-05-06 23:54 | 32.99468 | -96.98139 | 7149 ft | 230 kts | 46° |
| 2026-05-06 23:54 | 33.00652 | -96.96718 | 7336 ft | 256 kts | 53° |
| 2026-05-06 23:54 | 33.01356 | -96.94674 | 7570 ft | 280 kts | 77° |
| 2026-05-06 23:54 | 33.01850 | -96.92356 | 7996 ft | 296 kts | 82° |
| 2026-05-06 23:55 | 33.01734 | -96.89910 | 8652 ft | 298 kts | 106° |
| 2026-05-06 23:55 | 33.01293 | -96.87473 | 9360 ft | 304 kts | 102° |
| 2026-05-06 23:55 | 33.00709 | -96.85043 | 10011 ft | 306 kts | 120° |
| 2026-05-06 23:55 | 32.99732 | -96.82755 | 10428 ft | 322 kts | 122° |
| 2026-05-06 23:56 | 32.98684 | -96.80317 | 10750 ft | 339 kts | 121° |
| 2026-05-06 23:56 | 32.97621 | -96.77790 | 11391 ft | 345 kts | 121° |
| 2026-05-06 23:56 | 32.96556 | -96.75211 | 12085 ft | 350 kts | 121° |
| 2026-05-06 23:56 | 32.95485 | -96.72582 | 12752 ft | 355 kts | 122° |
| 2026-05-06 23:57 | 32.94405 | -96.69908 | 13417 ft | 362 kts | 122° |
| 2026-05-06 23:57 | 32.93324 | -96.67219 | 14097 ft | 367 kts | 122° |
| 2026-05-06 23:57 | 32.92205 | -96.64430 | 14795 ft | 372 kts | 122° |
| 2026-05-06 23:57 | 32.91091 | -96.61654 | 15437 ft | 379 kts | 123° |
| 2026-05-06 23:58 | 32.89936 | -96.58774 | 16127 ft | 385 kts | 123° |
| 2026-05-06 23:58 | 32.88794 | -96.55919 | 16843 ft | 388 kts | 123° |
| 2026-05-06 23:58 | 32.87625 | -96.53008 | 17482 ft | 393 kts | 124° |
| 2026-05-06 23:58 | 32.86432 | -96.50047 | 18047 ft | 401 kts | 124° |
| 2026-05-06 23:59 | 32.85229 | -96.47044 | 18690 ft | 405 kts | 124° |
| 2026-05-06 23:59 | 32.84007 | -96.44015 | 19328 ft | 409 kts | 124° |
| 2026-05-06 23:59 | 32.82768 | -96.40949 | 19936 ft | 413 kts | 124° |
| 2026-05-06 23:59 | 32.81519 | -96.37856 | 20559 ft | 417 kts | 123° |
| 2026-05-07 00:00 | 32.80498 | -96.34563 | 21125 ft | 433 kts | 111° |
| 2026-05-07 00:00 | 32.80033 | -96.30975 | 21652 ft | 447 kts | 97° |
| 2026-05-07 00:00 | 32.80166 | -96.27239 | 22173 ft | 457 kts | 87° |
| 2026-05-07 00:00 | 32.80567 | -96.23473 | 22710 ft | 462 kts | 85° |
| 2026-05-07 00:01 | 32.81018 | -96.19667 | 23195 ft | 467 kts | 85° |
| 2026-05-07 00:01 | 32.81471 | -96.15834 | 23684 ft | 471 kts | 85° |
| 2026-05-07 00:01 | 32.81909 | -96.11958 | 24156 ft | 475 kts | 86° |
| 2026-05-07 00:01 | 32.82332 | -96.08040 | 24599 ft | 479 kts | 86° |
| 2026-05-07 00:02 | 32.82742 | -96.04096 | 25066 ft | 482 kts | 86° |
| 2026-05-07 00:02 | 32.83148 | -96.00125 | 25484 ft | 486 kts | 86° |
| 2026-05-07 00:02 | 32.83556 | -95.96120 | 25888 ft | 490 kts | 86° |
| 2026-05-07 00:02 | 32.83968 | -95.92079 | 26287 ft | 494 kts | 86° |
| 2026-05-07 00:03 | 32.84381 | -95.88009 | 26678 ft | 498 kts | 86° |
| 2026-05-07 00:03 | 32.84795 | -95.83902 | 27060 ft | 502 kts | 86° |
| 2026-05-07 00:03 | 32.85211 | -95.79774 | 27402 ft | 507 kts | 86° |
| 2026-05-07 00:03 | 32.85631 | -95.75590 | 27760 ft | 511 kts | 86° |
| 2026-05-07 00:04 | 32.86051 | -95.71387 | 28132 ft | 513 kts | 86° |
| 2026-05-07 00:04 | 32.86477 | -95.67151 | 28484 ft | 518 kts | 86° |
| 2026-05-07 00:04 | 32.86903 | -95.62892 | 28835 ft | 521 kts | 86° |
| 2026-05-07 00:04 | 32.87331 | -95.58602 | 29151 ft | 524 kts | 86° |
| 2026-05-07 00:05 | 32.87760 | -95.54273 | 29467 ft | 528 kts | 86° |
| 2026-05-07 00:05 | 32.88191 | -95.49924 | 29811 ft | 530 kts | 86° |
| 2026-05-07 00:05 | 32.88622 | -95.45554 | 30138 ft | 534 kts | 86° |
| 2026-05-07 00:05 | 32.89054 | -95.41157 | 30428 ft | 537 kts | 87° |
| 2026-05-07 00:06 | 32.89487 | -95.36726 | 30740 ft | 540 kts | 87° |
| 2026-05-07 00:06 | 32.89919 | -95.32283 | 31037 ft | 543 kts | 87° |
| 2026-05-07 00:06 | 32.90354 | -95.27806 | 31331 ft | 545 kts | 87° |
| 2026-05-07 00:06 | 32.90788 | -95.23311 | 31592 ft | 548 kts | 87° |
| 2026-05-07 00:07 | 32.91222 | -95.18801 | 31850 ft | 551 kts | 87° |
| 2026-05-07 00:07 | 32.91658 | -95.14259 | 32137 ft | 553 kts | 87° |
| 2026-05-07 00:07 | 32.92093 | -95.09695 | 32373 ft | 556 kts | 87° |
| 2026-05-07 00:07 | 32.92523 | -95.05177 | 32606 ft | 558 kts | 87° |
| 2026-05-07 00:08 | 32.92960 | -95.00571 | 32862 ft | 561 kts | 87° |
| 2026-05-07 00:08 | 32.93396 | -94.95959 | 33163 ft | 561 kts | 87° |
| 2026-05-07 00:08 | 32.93832 | -94.91333 | 33470 ft | 562 kts | 87° |
| 2026-05-07 00:08 | 32.94264 | -94.86718 | 33793 ft | 562 kts | 87° |
| 2026-05-07 00:09 | 32.94696 | -94.82092 | 34124 ft | 561 kts | 87° |
| 2026-05-07 00:09 | 32.95126 | -94.77483 | 34411 ft | 561 kts | 87° |
| 2026-05-07 00:09 | 32.95553 | -94.72859 | 34679 ft | 562 kts | 87° |
| 2026-05-07 00:09 | 32.95979 | -94.68227 | 34952 ft | 563 kts | 87° |
| 2026-05-07 00:10 | 32.96403 | -94.63595 | 35255 ft | 562 kts | 87° |
| 2026-05-07 00:10 | 32.96823 | -94.59009 | 35554 ft | 561 kts | 87° |
| 2026-05-07 00:10 | 32.97243 | -94.54395 | 35816 ft | 562 kts | 87° |
| 2026-05-07 00:10 | 32.97663 | -94.49758 | 36055 ft | 562 kts | 87° |
| 2026-05-07 00:11 | 32.98080 | -94.45141 | 36328 ft | 562 kts | 87° |
| 2026-05-07 00:11 | 32.98496 | -94.40503 | 36514 ft | 564 kts | 87° |
| 2026-05-07 00:11 | 32.98912 | -94.35861 | 36733 ft | 564 kts | 87° |
| 2026-05-07 00:11 | 32.99327 | -94.31213 | 37025 ft | 562 kts | 87° |
| 2026-05-07 00:12 | 32.99713 | -94.26594 | 37399 ft | 557 kts | 90° |
| 2026-05-07 00:12 | 32.99818 | -94.22018 | 37703 ft | 552 kts | 95° |
| 2026-05-07 00:12 | 32.99744 | -94.17445 | 37945 ft | 550 kts | 97° |
| 2026-05-07 00:12 | 32.99595 | -94.12895 | 38109 ft | 551 kts | 97° |
| 2026-05-07 00:13 | 32.99428 | -94.08335 | 38256 ft | 552 kts | 97° |
| 2026-05-07 00:13 | 32.99274 | -94.03762 | 38437 ft | 552 kts | 97° |
| 2026-05-07 00:13 | 32.99144 | -93.99250 | 38656 ft | 552 kts | 96° |
| 2026-05-07 00:13 | 32.99033 | -93.94626 | 38843 ft | 551 kts | 96° |
| 2026-05-07 00:14 | 32.98816 | -93.85547 | 38933 ft | 555 kts | 97° |
| 2026-05-07 00:14 | 32.98558 | -93.76344 | 38960 ft | 558 kts | 94° |
| 2026-05-07 00:15 | 32.98484 | -93.67125 | 38958 ft | 556 kts | 96° |
| 2026-05-07 00:15 | 32.98250 | -93.57948 | 38974 ft | 554 kts | 96° |